sensor_id;sensor_type;location;lat;lon;timestamp;temperature;humidity
16388;DHT22;8303;53.446;9.988;2023-04-23T04:47:38;10.20;99.90
16388;DHT22;8303;53.446;9.988;2023-04-23T04:50:09;10.20;99.90
16388;DHT22;8303;53.446;9.988;2023-04-23T04:52:37;10.10;99.90
16388;DHT22;8303;53.446;9.988;2023-04-23T04:55:05;10.20;99.90
16388;DHT22;8303;53.446;9.988;2023-04-23T04:57:32;10.20;99.90
16388;DHT22;8303;53.446;9.988;2023-04-23T05:00:02;10.20;99.90
16388;DHT22;8303;53.446;9.988;2023-04-23T05:02:46;10.10;99.90
16388;DHT22;8303;53.446;9.988;2023-04-23T05:05:13;10.10;99.90
16388;DHT22;8303;53.446;9.988;2023-04-23T05:07:40;10.10;99.90
16388;DHT22;8303;53.446;9.988;2023-04-23T05:10:07;10.20;99.90
16388;DHT22;8303;53.446;9.988;2023-04-23T05:12:34;10.20;99.30
16388;DHT22;8303;53.446;9.988;2023-04-23T05:15:01;10.20;83.10
16388;DHT22;8303;53.446;9.988;2023-04-23T05:17:29;10.10;84.40
16388;DHT22;8303;53.446;9.988;2023-04-23T05:19:57;10.20;92.80
16388;DHT22;8303;53.446;9.988;2023-04-23T05:22:24;10.30;92.90
16388;DHT22;8303;53.446;9.988;2023-04-23T05:24:51;10.20;28.50
16388;DHT22;8303;53.446;9.988;2023-04-23T05:27:18;10.10;12.30
16388;DHT22;8303;53.446;9.988;2023-04-23T05:29:45;10.10;16.20
16388;DHT22;8303;53.446;9.988;2023-04-23T05:32:12;10.10;15.70
16388;DHT22;8303;53.446;9.988;2023-04-23T05:34:39;10.00;1.00
16388;DHT22;8303;53.446;9.988;2023-04-23T05:37:08;10.00;1.00
16388;DHT22;8303;53.446;9.988;2023-04-23T05:39:35;10.00;1.00
16388;DHT22;8303;53.446;9.988;2023-04-23T05:42:02;10.00;1.00
16388;DHT22;8303;53.446;9.988;2023-04-23T05:44:29;10.00;1.00
16388;DHT22;8303;53.446;9.988;2023-04-23T05:46:56;10.00;1.00
16388;DHT22;8303;53.446;9.988;2023-04-23T05:49:23;10.10;1.00
16388;DHT22;8303;53.446;9.988;2023-04-23T05:51:51;10.10;1.00
16388;DHT22;8303;53.446;9.988;2023-04-23T05:54:19;10.20;1.00
16388;DHT22;8303;53.446;9.988;2023-04-23T05:56:46;10.20;1.00
16388;DHT22;8303;53.446;9.988;2023-04-23T05:59:13;10.20;1.00
16388;DHT22;8303;53.446;9.988;2023-04-23T06:01:40;10.30;1.00
16388;DHT22;8303;53.446;9.988;2023-04-23T06:04:07;10.40;1.00
16388;DHT22;8303;53.446;9.988;2023-04-23T06:06:34;10.50;1.00
16388;DHT22;8303;53.446;9.988;2023-04-23T06:09:01;10.60;1.00
16388;DHT22;8303;53.446;9.988;2023-04-23T06:11:30;10.50;1.00
16388;DHT22;8303;53.446;9.988;2023-04-23T06:13:57;10.50;1.00
16388;DHT22;8303;53.446;9.988;2023-04-23T06:16:24;10.60;1.00
16388;DHT22;8303;53.446;9.988;2023-04-23T06:18:51;10.60;1.00
16388;DHT22;8303;53.446;9.988;2023-04-23T06:21:18;10.50;1.00
16388;DHT22;8303;53.446;9.988;2023-04-23T06:23:45;10.50;1.00
16388;DHT22;8303;53.446;9.988;2023-04-23T06:26:12;10.60;1.00
16388;DHT22;8303;53.446;9.988;2023-04-23T06:28:41;10.60;1.00
16388;DHT22;8303;53.446;9.988;2023-04-23T06:31:09;10.60;1.00
16388;DHT22;8303;53.446;9.988;2023-04-23T06:33:36;10.70;1.00
16388;DHT22;8303;53.446;9.988;2023-04-23T06:36:03;10.70;1.00
16388;DHT22;8303;53.446;9.988;2023-04-23T06:38:30;10.80;1.00
16388;DHT22;8303;53.446;9.988;2023-04-23T06:40:57;10.90;1.00
16388;DHT22;8303;53.446;9.988;2023-04-23T06:43:24;10.90;1.00
16388;DHT22;8303;53.446;9.988;2023-04-23T06:45:52;11.00;1.00
16388;DHT22;8303;53.446;9.988;2023-04-23T06:48:19;11.10;1.00
16388;DHT22;8303;53.446;9.988;2023-04-23T06:50:46;11.20;1.00
16388;DHT22;8303;53.446;9.988;2023-04-23T06:53:13;11.30;1.00
16388;DHT22;8303;53.446;9.988;2023-04-23T06:55:40;11.40;1.00
16388;DHT22;8303;53.446;9.988;2023-04-23T06:58:07;11.30;1.00
16388;DHT22;8303;53.446;9.988;2023-04-23T07:00:34;11.30;1.00
16388;DHT22;8303;53.446;9.988;2023-04-23T07:03:03;11.40;1.00
16388;DHT22;8303;53.446;9.988;2023-04-23T07:05:29;11.40;1.00
16388;DHT22;8303;53.446;9.988;2023-04-23T07:07:56;11.40;1.00
16388;DHT22;8303;53.446;9.988;2023-04-23T07:10:24;11.40;1.00
16388;DHT22;8303;53.446;9.988;2023-04-23T07:12:51;11.50;1.00
16388;DHT22;8303;53.446;9.988;2023-04-23T07:15:17;11.60;1.00
16388;DHT22;8303;53.446;9.988;2023-04-23T07:17:44;11.60;1.00
16388;DHT22;8303;53.446;9.988;2023-04-23T07:20:13;11.50;1.00
16388;DHT22;8303;53.446;9.988;2023-04-23T07:22:39;11.60;1.00
16388;DHT22;8303;53.446;9.988;2023-04-23T07:25:07;11.70;1.00
16388;DHT22;8303;53.446;9.988;2023-04-23T07:27:34;11.70;1.00
16388;DHT22;8303;53.446;9.988;2023-04-23T07:30:01;11.80;1.00
16388;DHT22;8303;53.446;9.988;2023-04-23T07:32:29;11.90;1.00
16388;DHT22;8303;53.446;9.988;2023-04-23T07:34:56;12.30;1.00
16388;DHT22;8303;53.446;9.988;2023-04-23T07:37:24;12.60;1.00
16388;DHT22;8303;53.446;9.988;2023-04-23T07:39:51;12.80;1.00
16388;DHT22;8303;53.446;9.988;2023-04-23T07:42:19;13.10;1.00
16388;DHT22;8303;53.446;9.988;2023-04-23T07:44:45;13.00;1.00
16388;DHT22;8303;53.446;9.988;2023-04-23T07:47:12;12.80;1.00
16388;DHT22;8303;53.446;9.988;2023-04-23T07:49:39;12.90;1.00
16388;DHT22;8303;53.446;9.988;2023-04-23T07:52:06;12.90;1.00
16388;DHT22;8303;53.446;9.988;2023-04-23T07:54:34;12.90;1.00
16388;DHT22;8303;53.446;9.988;2023-04-23T07:57:01;12.90;1.00
16388;DHT22;8303;53.446;9.988;2023-04-23T07:59:28;13.00;1.00
16388;DHT22;8303;53.446;9.988;2023-04-23T08:01:55;12.90;1.00
16388;DHT22;8303;53.446;9.988;2023-04-23T08:04:22;13.20;1.00
16388;DHT22;8303;53.446;9.988;2023-04-23T08:06:49;13.50;1.00
16388;DHT22;8303;53.446;9.988;2023-04-23T08:09:16;13.30;1.00
16388;DHT22;8303;53.446;9.988;2023-04-23T08:11:44;13.30;1.00
16388;DHT22;8303;53.446;9.988;2023-04-23T08:14:12;13.30;1.00
16388;DHT22;8303;53.446;9.988;2023-04-23T08:16:39;13.40;1.00
16388;DHT22;8303;53.446;9.988;2023-04-23T08:19:06;13.40;1.00
16388;DHT22;8303;53.446;9.988;2023-04-23T08:21:33;13.60;1.00
16388;DHT22;8303;53.446;9.988;2023-04-23T08:24:00;13.60;1.00
16388;DHT22;8303;53.446;9.988;2023-04-23T08:26:27;13.70;1.00
16388;DHT22;8303;53.446;9.988;2023-04-23T08:28:56;13.60;1.00
16388;DHT22;8303;53.446;9.988;2023-04-23T08:31:25;13.60;1.00
16388;DHT22;8303;53.446;9.988;2023-04-23T08:33:52;14.00;1.00
16388;DHT22;8303;53.446;9.988;2023-04-23T08:36:19;13.90;1.00
16388;DHT22;8303;53.446;9.988;2023-04-23T08:38:45;13.80;1.00
16388;DHT22;8303;53.446;9.988;2023-04-23T08:41:14;13.60;1.00
16388;DHT22;8303;53.446;9.988;2023-04-23T08:43:44;13.80;1.00
16388;DHT22;8303;53.446;9.988;2023-04-23T08:46:13;14.00;1.00
16388;DHT22;8303;53.446;9.988;2023-04-23T08:48:43;13.90;1.00
16388;DHT22;8303;53.446;9.988;2023-04-23T08:51:15;14.10;1.00
16388;DHT22;8303;53.446;9.988;2023-04-23T08:53:43;14.20;1.00
16388;DHT22;8303;53.446;9.988;2023-04-23T08:56:12;14.40;1.00
16388;DHT22;8303;53.446;9.988;2023-04-23T08:58:40;14.70;1.00
16388;DHT22;8303;53.446;9.988;2023-04-23T09:01:07;14.70;1.00
16388;DHT22;8303;53.446;9.988;2023-04-23T09:03:36;14.40;1.00
16388;DHT22;8303;53.446;9.988;2023-04-23T09:06:05;14.20;1.00
16388;DHT22;8303;53.446;9.988;2023-04-23T09:08:31;14.20;1.00
16388;DHT22;8303;53.446;9.988;2023-04-23T09:11:00;14.50;1.00
16388;DHT22;8303;53.446;9.988;2023-04-23T09:13:29;14.70;99.90
16388;DHT22;8303;53.446;9.988;2023-04-23T09:15:56;14.80;99.90
16388;DHT22;8303;53.446;9.988;2023-04-23T09:18:23;14.90;99.90
16388;DHT22;8303;53.446;9.988;2023-04-23T09:20:52;15.20;99.90
16388;DHT22;8303;53.446;9.988;2023-04-23T09:23:21;15.30;99.90
16388;DHT22;8303;53.446;9.988;2023-04-23T09:25:48;15.30;99.90
16388;DHT22;8303;53.446;9.988;2023-04-23T09:28:15;15.20;99.90
16388;DHT22;8303;53.446;9.988;2023-04-23T09:30:43;15.50;99.90
16388;DHT22;8303;53.446;9.988;2023-04-23T09:33:10;15.40;99.90
16388;DHT22;8303;53.446;9.988;2023-04-23T09:35:37;15.20;99.90
16388;DHT22;8303;53.446;9.988;2023-04-23T09:38:08;15.20;99.90
16388;DHT22;8303;53.446;9.988;2023-04-23T09:40:35;15.30;99.90
16388;DHT22;8303;53.446;9.988;2023-04-23T09:43:04;15.20;99.90
16388;DHT22;8303;53.446;9.988;2023-04-23T09:45:32;15.20;99.90
16388;DHT22;8303;53.446;9.988;2023-04-23T09:47:59;15.20;99.90
16388;DHT22;8303;53.446;9.988;2023-04-23T09:50:34;15.10;99.90
16388;DHT22;8303;53.446;9.988;2023-04-23T09:53:03;15.20;99.90
16388;DHT22;8303;53.446;9.988;2023-04-23T09:55:33;15.30;99.90
16388;DHT22;8303;53.446;9.988;2023-04-23T09:58:03;15.30;99.90
16388;DHT22;8303;53.446;9.988;2023-04-23T10:00:35;15.50;99.90
16388;DHT22;8303;53.446;9.988;2023-04-23T10:03:02;15.70;99.90
16388;DHT22;8303;53.446;9.988;2023-04-23T10:05:30;15.60;99.90
16388;DHT22;8303;53.446;9.988;2023-04-23T10:07:56;15.50;99.90
16388;DHT22;8303;53.446;9.988;2023-04-23T10:10:24;15.50;99.90
16388;DHT22;8303;53.446;9.988;2023-04-23T10:12:52;15.30;99.90
16388;DHT22;8303;53.446;9.988;2023-04-23T10:15:22;15.20;99.90
16388;DHT22;8303;53.446;9.988;2023-04-23T10:17:50;15.30;99.90
16388;DHT22;8303;53.446;9.988;2023-04-23T10:20:19;15.30;99.90
16388;DHT22;8303;53.446;9.988;2023-04-23T10:22:46;15.30;99.90
16388;DHT22;8303;53.446;9.988;2023-04-23T10:25:14;15.60;99.90
16388;DHT22;8303;53.446;9.988;2023-04-23T10:27:42;15.80;99.90
16388;DHT22;8303;53.446;9.988;2023-04-23T10:30:13;15.90;99.90
16388;DHT22;8303;53.446;9.988;2023-04-23T10:32:40;16.20;99.90
16388;DHT22;8303;53.446;9.988;2023-04-23T10:35:08;16.50;99.90
16388;DHT22;8303;53.446;9.988;2023-04-23T10:37:36;16.70;99.90
16388;DHT22;8303;53.446;9.988;2023-04-23T10:40:07;16.60;99.90
16388;DHT22;8303;53.446;9.988;2023-04-23T10:42:37;16.90;99.90
16388;DHT22;8303;53.446;9.988;2023-04-23T10:45:12;16.70;99.90
16388;DHT22;8303;53.446;9.988;2023-04-23T10:47:41;16.80;99.90
16388;DHT22;8303;53.446;9.988;2023-04-23T10:50:23;17.10;99.90
16388;DHT22;8303;53.446;9.988;2023-04-23T10:52:50;17.10;99.90
16388;DHT22;8303;53.446;9.988;2023-04-23T10:55:21;17.00;99.90
16388;DHT22;8303;53.446;9.988;2023-04-23T10:57:55;17.20;99.90
16388;DHT22;8303;53.446;9.988;2023-04-23T11:00:24;17.10;99.90
16388;DHT22;8303;53.446;9.988;2023-04-23T11:02:51;17.40;99.90
16388;DHT22;8303;53.446;9.988;2023-04-23T11:05:19;17.50;99.90
16388;DHT22;8303;53.446;9.988;2023-04-23T11:08:02;17.60;99.90
16388;DHT22;8303;53.446;9.988;2023-04-23T11:10:30;17.90;99.90
16388;DHT22;8303;53.446;9.988;2023-04-23T11:13:18;17.60;99.90
16388;DHT22;8303;53.446;9.988;2023-04-23T11:15:47;17.80;99.90
16388;DHT22;8303;53.446;9.988;2023-04-23T11:18:13;18.10;99.90
16388;DHT22;8303;53.446;9.988;2023-04-23T11:20:40;18.30;99.90
16388;DHT22;8303;53.446;9.988;2023-04-23T11:23:07;18.40;99.90
16388;DHT22;8303;53.446;9.988;2023-04-23T11:25:54;18.60;99.90
16388;DHT22;8303;53.446;9.988;2023-04-23T11:28:22;18.60;99.90
16388;DHT22;8303;53.446;9.988;2023-04-23T11:30:52;18.40;99.90
16388;DHT22;8303;53.446;9.988;2023-04-23T11:33:19;18.70;99.90
16388;DHT22;8303;53.446;9.988;2023-04-23T11:35:47;18.70;99.90
16388;DHT22;8303;53.446;9.988;2023-04-23T11:38:14;18.50;99.90
16388;DHT22;8303;53.446;9.988;2023-04-23T11:40:40;18.60;99.90
16388;DHT22;8303;53.446;9.988;2023-04-23T11:43:08;18.80;99.90
16388;DHT22;8303;53.446;9.988;2023-04-23T11:45:35;19.10;99.90
16388;DHT22;8303;53.446;9.988;2023-04-23T11:48:05;19.20;99.90
16388;DHT22;8303;53.446;9.988;2023-04-23T11:50:32;19.30;99.90
16388;DHT22;8303;53.446;9.988;2023-04-23T11:53:04;19.30;99.90
16388;DHT22;8303;53.446;9.988;2023-04-23T11:55:31;19.60;99.90
16388;DHT22;8303;53.446;9.988;2023-04-23T11:57:58;19.90;99.90
16388;DHT22;8303;53.446;9.988;2023-04-23T12:00:26;19.70;99.90
16388;DHT22;8303;53.446;9.988;2023-04-23T12:02:54;19.80;99.90
16388;DHT22;8303;53.446;9.988;2023-04-23T12:05:26;19.50;99.90
16388;DHT22;8303;53.446;9.988;2023-04-23T12:07:54;19.40;99.90
16388;DHT22;8303;53.446;9.988;2023-04-23T12:10:21;19.20;99.90
16388;DHT22;8303;53.446;9.988;2023-04-23T12:12:50;19.30;99.90
16388;DHT22;8303;53.446;9.988;2023-04-23T12:15:17;19.70;99.90
16388;DHT22;8303;53.446;9.988;2023-04-23T12:17:48;20.20;99.90
16388;DHT22;8303;53.446;9.988;2023-04-23T12:20:17;20.20;99.90
16388;DHT22;8303;53.446;9.988;2023-04-23T12:22:47;20.00;99.90
16388;DHT22;8303;53.446;9.988;2023-04-23T12:25:14;20.10;99.90
16388;DHT22;8303;53.446;9.988;2023-04-23T12:27:43;20.30;99.90
16388;DHT22;8303;53.446;9.988;2023-04-23T12:30:11;20.40;99.90
16388;DHT22;8303;53.446;9.988;2023-04-23T12:32:38;20.70;99.90
16388;DHT22;8303;53.446;9.988;2023-04-23T12:35:05;21.10;99.90
16388;DHT22;8303;53.446;9.988;2023-04-23T12:37:35;20.90;99.90
16388;DHT22;8303;53.446;9.988;2023-04-23T12:40:05;20.70;99.90
16388;DHT22;8303;53.446;9.988;2023-04-23T12:42:33;20.30;99.90
16388;DHT22;8303;53.446;9.988;2023-04-23T12:45:05;20.00;99.90
16388;DHT22;8303;53.446;9.988;2023-04-23T12:47:33;20.00;99.90
16388;DHT22;8303;53.446;9.988;2023-04-23T12:50:00;20.00;99.90
16388;DHT22;8303;53.446;9.988;2023-04-23T12:52:29;20.80;99.90
16388;DHT22;8303;53.446;9.988;2023-04-23T12:54:56;20.70;99.90
16388;DHT22;8303;53.446;9.988;2023-04-23T12:57:26;20.90;99.90
16388;DHT22;8303;53.446;9.988;2023-04-23T12:59:53;21.60;99.90
16388;DHT22;8303;53.446;9.988;2023-04-23T13:02:22;21.40;99.90
16388;DHT22;8303;53.446;9.988;2023-04-23T13:04:48;21.70;99.90
16388;DHT22;8303;53.446;9.988;2023-04-23T13:07:15;21.90;99.90
16388;DHT22;8303;53.446;9.988;2023-04-23T13:09:42;21.10;99.90
16388;DHT22;8303;53.446;9.988;2023-04-23T13:12:09;21.10;99.90
16388;DHT22;8303;53.446;9.988;2023-04-23T13:14:37;20.60;99.90
16388;DHT22;8303;53.446;9.988;2023-04-23T13:17:05;20.20;99.90
16388;DHT22;8303;53.446;9.988;2023-04-23T13:19:32;20.00;99.90
16388;DHT22;8303;53.446;9.988;2023-04-23T13:22:01;19.90;99.90
16388;DHT22;8303;53.446;9.988;2023-04-23T13:24:28;19.60;99.90
16388;DHT22;8303;53.446;9.988;2023-04-23T13:26:55;19.80;99.90
16388;DHT22;8303;53.446;9.988;2023-04-23T13:29:22;19.80;99.90
16388;DHT22;8303;53.446;9.988;2023-04-23T13:31:53;20.00;99.90
16388;DHT22;8303;53.446;9.988;2023-04-23T13:34:20;20.30;99.90
16388;DHT22;8303;53.446;9.988;2023-04-23T13:36:47;20.40;99.90
16388;DHT22;8303;53.446;9.988;2023-04-23T13:39:14;20.60;99.90
16388;DHT22;8303;53.446;9.988;2023-04-23T13:41:42;20.80;99.90
16388;DHT22;8303;53.446;9.988;2023-04-23T13:44:09;21.40;99.90
16388;DHT22;8303;53.446;9.988;2023-04-23T13:46:38;21.50;99.90
16388;DHT22;8303;53.446;9.988;2023-04-23T13:49:07;20.90;99.90
16388;DHT22;8303;53.446;9.988;2023-04-23T13:51:33;20.60;99.90
16388;DHT22;8303;53.446;9.988;2023-04-23T13:54:00;20.40;99.90
16388;DHT22;8303;53.446;9.988;2023-04-23T13:56:27;20.20;99.90
16388;DHT22;8303;53.446;9.988;2023-04-23T13:58:55;20.30;99.90
16388;DHT22;8303;53.446;9.988;2023-04-23T14:01:27;20.80;99.90
16388;DHT22;8303;53.446;9.988;2023-04-23T14:03:53;21.00;99.90
16388;DHT22;8303;53.446;9.988;2023-04-23T14:06:22;21.00;99.90
16388;DHT22;8303;53.446;9.988;2023-04-23T14:08:49;20.60;99.90
16388;DHT22;8303;53.446;9.988;2023-04-23T14:11:16;20.30;99.90
16388;DHT22;8303;53.446;9.988;2023-04-23T14:13:43;20.00;99.90
16388;DHT22;8303;53.446;9.988;2023-04-23T14:16:10;19.80;99.90
16388;DHT22;8303;53.446;9.988;2023-04-23T14:18:37;19.40;99.90
16388;DHT22;8303;53.446;9.988;2023-04-23T14:21:04;18.90;99.90
16388;DHT22;8303;53.446;9.988;2023-04-23T14:23:48;18.60;99.90
16388;DHT22;8303;53.446;9.988;2023-04-23T14:26:28;17.60;99.90
16388;DHT22;8303;53.446;9.988;2023-04-23T14:29:02;16.40;99.90
16388;DHT22;8303;53.446;9.988;2023-04-23T14:31:29;15.60;1.00
16388;DHT22;8303;53.446;9.988;2023-04-23T14:33:56;15.30;1.00
16388;DHT22;8303;53.446;9.988;2023-04-23T14:36:24;15.20;1.00
16388;DHT22;8303;53.446;9.988;2023-04-23T14:38:52;15.30;1.00
16388;DHT22;8303;53.446;9.988;2023-04-23T14:41:19;16.10;1.00
16388;DHT22;8303;53.446;9.988;2023-04-23T14:43:46;16.70;1.00
16388;DHT22;8303;53.446;9.988;2023-04-23T14:46:13;17.00;1.00
16388;DHT22;8303;53.446;9.988;2023-04-23T14:48:40;17.20;99.90
16388;DHT22;8303;53.446;9.988;2023-04-23T14:51:07;17.90;99.90
16388;DHT22;8303;53.446;9.988;2023-04-23T14:53:34;18.60;99.90
16388;DHT22;8303;53.446;9.988;2023-04-23T14:56:03;19.60;99.90
16388;DHT22;8303;53.446;9.988;2023-04-23T14:58:30;20.30;99.90
16388;DHT22;8303;53.446;9.988;2023-04-23T15:00:57;20.40;99.90
16388;DHT22;8303;53.446;9.988;2023-04-23T15:03:24;20.40;99.90
16388;DHT22;8303;53.446;9.988;2023-04-23T15:05:52;20.10;99.90
16388;DHT22;8303;53.446;9.988;2023-04-23T15:08:19;19.60;99.90
16388;DHT22;8303;53.446;9.988;2023-04-23T15:10:46;19.00;99.90
16388;DHT22;8303;53.446;9.988;2023-04-23T15:13:42;18.70;99.90
16388;DHT22;8303;53.446;9.988;2023-04-23T15:16:18;18.40;99.90
16388;DHT22;8303;53.446;9.988;2023-04-23T15:18:45;17.80;99.90
16388;DHT22;8303;53.446;9.988;2023-04-23T15:21:12;17.60;99.90
16388;DHT22;8303;53.446;9.988;2023-04-23T15:23:39;17.60;99.90
16388;DHT22;8303;53.446;9.988;2023-04-23T15:26:06;18.00;99.90
16388;DHT22;8303;53.446;9.988;2023-04-23T15:28:34;18.00;99.90
16388;DHT22;8303;53.446;9.988;2023-04-23T15:31:03;18.00;99.90
16388;DHT22;8303;53.446;9.988;2023-04-23T15:33:30;17.90;99.90
16388;DHT22;8303;53.446;9.988;2023-04-23T15:35:57;17.90;99.90
16388;DHT22;8303;53.446;9.988;2023-04-23T15:38:24;17.60;99.90
16388;DHT22;8303;53.446;9.988;2023-04-23T15:40:50;17.60;99.90
16388;DHT22;8303;53.446;9.988;2023-04-23T15:43:17;17.50;99.90
16388;DHT22;8303;53.446;9.988;2023-04-23T15:45:44;17.30;99.90
16388;DHT22;8303;53.446;9.988;2023-04-23T15:48:14;17.30;99.90
16388;DHT22;8303;53.446;9.988;2023-04-23T15:50:41;17.30;99.90
16388;DHT22;8303;53.446;9.988;2023-04-23T15:53:08;17.20;99.90
16388;DHT22;8303;53.446;9.988;2023-04-23T15:55:35;17.00;99.90
16388;DHT22;8303;53.446;9.988;2023-04-23T15:58:03;17.00;99.90
16388;DHT22;8303;53.446;9.988;2023-04-23T16:00:30;16.90;99.90
16388;DHT22;8303;53.446;9.988;2023-04-23T16:02:58;16.90;99.90
16388;DHT22;8303;53.446;9.988;2023-04-23T16:05:27;16.90;99.90
16388;DHT22;8303;53.446;9.988;2023-04-23T16:07:54;16.80;99.90
16388;DHT22;8303;53.446;9.988;2023-04-23T16:10:21;16.70;99.90
16388;DHT22;8303;53.446;9.988;2023-04-23T16:12:48;16.60;99.90
16388;DHT22;8303;53.446;9.988;2023-04-23T16:15:15;16.50;99.90
16388;DHT22;8303;53.446;9.988;2023-04-23T16:17:42;16.40;99.90
16388;DHT22;8303;53.446;9.988;2023-04-23T16:20:09;16.30;99.90
16388;DHT22;8303;53.446;9.988;2023-04-23T16:22:37;16.10;99.90
16388;DHT22;8303;53.446;9.988;2023-04-23T16:25:05;15.90;99.90
16388;DHT22;8303;53.446;9.988;2023-04-23T16:27:32;15.70;99.90
16388;DHT22;8303;53.446;9.988;2023-04-23T16:29:59;15.70;99.90
16388;DHT22;8303;53.446;9.988;2023-04-23T16:32:26;15.50;99.90
16388;DHT22;8303;53.446;9.988;2023-04-23T16:34:53;15.50;1.00
16388;DHT22;8303;53.446;9.988;2023-04-23T16:37:20;15.40;1.00
16388;DHT22;8303;53.446;9.988;2023-04-23T16:39:48;15.30;1.00
16388;DHT22;8303;53.446;9.988;2023-04-23T16:42:15;15.40;1.00
16388;DHT22;8303;53.446;9.988;2023-04-23T16:44:42;15.40;1.00
16388;DHT22;8303;53.446;9.988;2023-04-23T16:47:09;15.40;1.00
16388;DHT22;8303;53.446;9.988;2023-04-23T16:49:36;15.40;1.00
16388;DHT22;8303;53.446;9.988;2023-04-23T16:52:03;15.40;1.00
16388;DHT22;8303;53.446;9.988;2023-04-23T16:54:30;15.50;1.00
16388;DHT22;8303;53.446;9.988;2023-04-23T16:57:01;15.40;1.00
16388;DHT22;8303;53.446;9.988;2023-04-23T16:59:29;15.40;1.00
16388;DHT22;8303;53.446;9.988;2023-04-23T17:01:55;15.30;1.00
16388;DHT22;8303;53.446;9.988;2023-04-23T17:04:22;15.30;1.00
16388;DHT22;8303;53.446;9.988;2023-04-23T17:06:49;15.40;1.00
16388;DHT22;8303;53.446;9.988;2023-04-23T17:09:17;15.40;1.00
16388;DHT22;8303;53.446;9.988;2023-04-23T17:11:44;15.50;1.00
16388;DHT22;8303;53.446;9.988;2023-04-23T17:14:12;15.60;1.00
16388;DHT22;8303;53.446;9.988;2023-04-23T17:16:39;15.70;1.00
16388;DHT22;8303;53.446;9.988;2023-04-23T17:19:07;16.00;99.90
16388;DHT22;8303;53.446;9.988;2023-04-23T17:21:33;16.30;99.90
16388;DHT22;8303;53.446;9.988;2023-04-23T17:24:00;16.30;99.90
16388;DHT22;8303;53.446;9.988;2023-04-23T17:26:27;16.40;99.90
16388;DHT22;8303;53.446;9.988;2023-04-23T17:28:54;16.40;99.90
16388;DHT22;8303;53.446;9.988;2023-04-23T17:31:23;16.20;99.90
16388;DHT22;8303;53.446;9.988;2023-04-23T17:33:50;16.10;99.90
16388;DHT22;8303;53.446;9.988;2023-04-23T17:36:18;16.00;99.90
16388;DHT22;8303;53.446;9.988;2023-04-23T17:38:44;15.90;1.00
16388;DHT22;8303;53.446;9.988;2023-04-23T17:41:11;15.80;1.00
16388;DHT22;8303;53.446;9.988;2023-04-23T17:43:38;15.70;1.00
16388;DHT22;8303;53.446;9.988;2023-04-23T17:46:05;15.70;1.00
16388;DHT22;8303;53.446;9.988;2023-04-23T17:48:34;15.60;1.00
16388;DHT22;8303;53.446;9.988;2023-04-23T17:51:01;15.60;1.00
16388;DHT22;8303;53.446;9.988;2023-04-23T17:53:27;15.60;1.00
16388;DHT22;8303;53.446;9.988;2023-04-23T17:55:55;15.50;1.00
16388;DHT22;8303;53.446;9.988;2023-04-23T17:58:27;15.50;1.00
16388;DHT22;8303;53.446;9.988;2023-04-23T18:00:54;15.50;1.00
16388;DHT22;8303;53.446;9.988;2023-04-23T18:03:22;15.40;1.00
16388;DHT22;8303;53.446;9.988;2023-04-23T18:05:50;15.30;1.00
16388;DHT22;8303;53.446;9.988;2023-04-23T18:08:17;15.20;1.00
16388;DHT22;8303;53.446;9.988;2023-04-23T18:10:45;15.10;1.00
16388;DHT22;8303;53.446;9.988;2023-04-23T18:13:12;15.00;1.00
16388;DHT22;8303;53.446;9.988;2023-04-23T18:15:39;14.90;1.00
16388;DHT22;8303;53.446;9.988;2023-04-23T18:18:07;14.70;1.00
16388;DHT22;8303;53.446;9.988;2023-04-23T18:20:34;14.70;1.00
16388;DHT22;8303;53.446;9.988;2023-04-23T18:23:04;14.50;1.00
16388;DHT22;8303;53.446;9.988;2023-04-23T18:25:32;14.50;1.00
16388;DHT22;8303;53.446;9.988;2023-04-23T18:28:00;14.40;1.00
16388;DHT22;8303;53.446;9.988;2023-04-23T18:30:27;14.30;1.00
16388;DHT22;8303;53.446;9.988;2023-04-23T18:33:00;14.30;1.00
16388;DHT22;8303;53.446;9.988;2023-04-23T18:35:27;14.20;1.00
16388;DHT22;8303;53.446;9.988;2023-04-23T18:37:59;14.20;1.00
16388;DHT22;8303;53.446;9.988;2023-04-23T18:40:32;14.10;1.00
16388;DHT22;8303;53.446;9.988;2023-04-23T18:42:59;14.00;1.00
16388;DHT22;8303;53.446;9.988;2023-04-23T18:45:26;13.90;1.00
16388;DHT22;8303;53.446;9.988;2023-04-23T18:47:56;13.90;1.00
16388;DHT22;8303;53.446;9.988;2023-04-23T18:50:35;13.90;1.00
16388;DHT22;8303;53.446;9.988;2023-04-23T18:53:02;13.80;1.00
16388;DHT22;8303;53.446;9.988;2023-04-23T18:55:29;13.70;1.00
16388;DHT22;8303;53.446;9.988;2023-04-23T18:57:58;13.70;1.00
16388;DHT22;8303;53.446;9.988;2023-04-23T19:00:25;13.60;1.00
16388;DHT22;8303;53.446;9.988;2023-04-23T19:02:52;13.60;1.00
16388;DHT22;8303;53.446;9.988;2023-04-23T19:05:19;13.60;1.00
16388;DHT22;8303;53.446;9.988;2023-04-23T19:07:46;13.50;1.00
16388;DHT22;8303;53.446;9.988;2023-04-23T19:10:14;13.50;1.00
16388;DHT22;8303;53.446;9.988;2023-04-23T19:12:41;13.50;1.00
16388;DHT22;8303;53.446;9.988;2023-04-23T19:15:10;13.40;1.00
16388;DHT22;8303;53.446;9.988;2023-04-23T19:17:39;13.40;1.00
16388;DHT22;8303;53.446;9.988;2023-04-23T19:20:07;13.30;1.00
16388;DHT22;8303;53.446;9.988;2023-04-23T19:22:36;13.20;1.00
16388;DHT22;8303;53.446;9.988;2023-04-23T19:25:04;13.20;1.00
16388;DHT22;8303;53.446;9.988;2023-04-23T19:27:31;13.10;1.00
16388;DHT22;8303;53.446;9.988;2023-04-23T19:29:58;13.10;1.00
16388;DHT22;8303;53.446;9.988;2023-04-23T19:32:27;13.10;1.00
16388;DHT22;8303;53.446;9.988;2023-04-23T19:34:54;13.10;1.00
16388;DHT22;8303;53.446;9.988;2023-04-23T19:37:21;13.10;1.00
16388;DHT22;8303;53.446;9.988;2023-04-23T19:39:48;13.20;1.00
16388;DHT22;8303;53.446;9.988;2023-04-23T19:42:17;13.20;1.00
16388;DHT22;8303;53.446;9.988;2023-04-23T19:44:43;13.20;1.00
16388;DHT22;8303;53.446;9.988;2023-04-23T19:47:12;13.20;1.00
16388;DHT22;8303;53.446;9.988;2023-04-23T19:49:41;13.20;1.00
16388;DHT22;8303;53.446;9.988;2023-04-23T19:52:09;13.20;1.00
16388;DHT22;8303;53.446;9.988;2023-04-23T19:54:38;13.20;1.00
16388;DHT22;8303;53.446;9.988;2023-04-23T19:57:06;13.20;1.00
16388;DHT22;8303;53.446;9.988;2023-04-23T19:59:33;13.10;1.00
16388;DHT22;8303;53.446;9.988;2023-04-23T20:02:00;13.10;1.00
16388;DHT22;8303;53.446;9.988;2023-04-23T20:04:27;13.10;1.00
16388;DHT22;8303;53.446;9.988;2023-04-23T20:06:55;13.10;1.00
16388;DHT22;8303;53.446;9.988;2023-04-23T20:09:22;13.00;1.00
16388;DHT22;8303;53.446;9.988;2023-04-23T20:11:50;13.10;1.00
16388;DHT22;8303;53.446;9.988;2023-04-23T20:14:18;13.10;1.00
16388;DHT22;8303;53.446;9.988;2023-04-23T20:16:45;13.10;1.00
16388;DHT22;8303;53.446;9.988;2023-04-23T20:19:12;13.10;1.00
16388;DHT22;8303;53.446;9.988;2023-04-23T20:21:40;13.00;1.00
16388;DHT22;8303;53.446;9.988;2023-04-23T20:24:09;13.00;1.00
16388;DHT22;8303;53.446;9.988;2023-04-23T20:26:39;12.80;1.00
16388;DHT22;8303;53.446;9.988;2023-04-23T20:29:06;12.90;1.00
